Time;durP1;ratioP1;P1;durP2;ratioP2;P2;SDS_P1;SDS_P2;PMS_P1;PMS_P2;Temp;Humidity;BMP_temperature;BMP_pressure;BME280_temperature;BME280_humidity;BME280_pressure;Samples;Min_cycle;Max_cycle;Signal;HPM_P1;HPM_P2
2022/02/24 00:01:30;;;;;;;17.38;3.40;;;;;;;4.26;78.90;100024.19;5038909;28;20037;-94
2022/02/24 00:04:03;;;;;;;19.73;4.25;;;;;;;4.20;79.34;100014.53;5025326;28;20049;-92
2022/02/24 00:06:30;;;;;;;9.85;3.03;;;;;;;4.14;79.34;100029.50;5023388;28;20076;-93
2022/02/24 00:08:59;;;;;;;11.63;3.17;;;;;;;4.10;79.11;100016.78;5011229;28;20045;-95
2022/02/24 00:11:31;;;;;;;7.55;1.95;;;;;;;4.09;79.17;100020.63;4991309;28;20045;-87
2022/02/24 00:13:59;;;;;;;6.85;2.00;;;;;;;4.04;78.66;99998.88;5021685;28;20132;-86
2022/02/24 00:16:26;;;;;;;12.32;2.92;;;;;;;4.02;79.09;100012.91;4989904;28;20573;-87
2022/02/24 00:18:54;;;;;;;14.20;2.80;;;;;;;4.01;78.84;99994.84;5021894;28;20048;-87
2022/02/24 00:21:22;;;;;;;24.73;4.38;;;;;;;4.03;78.82;99987.13;5006782;28;20464;-87
2022/02/24 00:23:49;;;;;;;7.75;2.92;;;;;;;4.01;78.59;99989.38;5039500;28;20064;-87
2022/02/24 00:26:16;;;;;;;15.77;2.20;;;;;;;3.98;78.54;99984.53;5039090;28;20045;-87
2022/02/24 00:28:44;;;;;;;16.13;3.38;;;;;;;3.98;78.58;99987.28;5005635;28;20057;-86
2022/02/24 00:31:11;;;;;;;8.57;2.13;;;;;;;3.97;78.79;99985.66;5022712;28;20103;-87
2022/02/24 00:33:41;;;;;;;15.20;2.38;;;;;;;3.95;78.66;99976.94;4990562;28;20055;-87
2022/02/24 00:36:08;;;;;;;18.98;3.30;;;;;;;3.92;78.50;99977.59;5023475;28;20132;-88
2022/02/24 00:38:35;;;;;;;11.00;1.95;;;;;;;3.93;78.41;99960.03;5040343;28;20131;-87
2022/02/24 00:41:03;;;;;;;11.60;2.75;;;;;;;3.93;78.22;99959.22;5006463;28;21225;-86
2022/02/24 00:43:30;;;;;;;9.02;2.00;;;;;;;3.92;78.28;99963.91;5021597;28;20041;-87
2022/02/24 00:45:57;;;;;;;13.65;1.95;;;;;;;3.90;78.37;99957.13;5023275;28;20065;-87
2022/02/24 00:48:24;;;;;;;13.38;2.50;;;;;;;3.89;78.33;99950.06;5023069;28;20056;-86
2022/02/24 00:50:51;;;;;;;10.35;2.40;;;;;;;3.88;78.36;99957.47;5006859;28;20531;-86
2022/02/24 00:53:19;;;;;;;17.77;2.35;;;;;;;3.87;78.57;99944.06;5025688;28;20123;-87
2022/02/24 00:55:46;;;;;;;8.93;2.35;;;;;;;3.87;78.41;99947.63;5026020;28;20076;-87
2022/02/24 00:58:14;;;;;;;15.50;3.85;;;;;;;3.85;78.71;99962.75;5027295;28;20508;-87
2022/02/24 01:00:42;;;;;;;12.90;2.50;;;;;;;3.87;78.97;99975.00;5009523;28;20073;-87
2022/02/24 01:03:09;;;;;;;11.60;2.28;;;;;;;3.84;78.27;99964.69;5026181;28;20044;-88
2022/02/24 01:05:37;;;;;;;8.95;1.77;;;;;;;3.83;78.59;99951.34;5023174;28;20472;-87
2022/02/24 01:08:04;;;;;;;8.23;2.60;;;;;;;3.78;78.50;99957.78;5027045;28;20079;-87
2022/02/24 01:10:31;;;;;;;7.63;2.38;;;;;;;3.72;78.74;99937.13;5026242;28;20038;-86
2022/02/24 01:12:58;;;;;;;10.43;2.20;;;;;;;3.65;78.73;99943.06;5026338;28;20075;-88
2022/02/24 01:15:25;;;;;;;9.95;1.77;;;;;;;3.62;78.68;99945.66;5025545;28;20128;-87
2022/02/24 01:17:52;;;;;;;11.45;1.83;;;;;;;3.56;78.64;99935.97;5024259;28;20053;-87
2022/02/24 01:20:20;;;;;;;7.00;1.52;;;;;;;3.49;78.50;99935.66;5042018;28;20048;-87
2022/02/24 01:22:47;;;;;;;16.15;2.20;;;;;;;3.43;78.69;99939.66;5025856;28;20099;-86
2022/02/24 01:25:14;;;;;;;13.43;2.15;;;;;;;3.41;78.61;99948.19;5042512;28;20129;-86
2022/02/24 01:27:44;;;;;;;7.95;1.95;;;;;;;3.32;79.03;99943.78;5026006;28;20069;-86
2022/02/24 01:30:11;;;;;;;16.67;2.03;;;;;;;3.24;79.05;99947.28;5025613;28;20053;-87
2022/02/24 01:32:39;;;;;;;9.48;1.67;;;;;;;3.21;79.32;99945.19;5021390;28;20049;-87
2022/02/24 01:35:06;;;;;;;10.32;1.80;;;;;;;3.17;79.35;99953.25;5025500;28;20063;-86
2022/02/24 01:37:33;;;;;;;5.60;1.65;;;;;;;3.15;79.71;99951.94;5025333;28;20042;-87
2022/02/24 01:40:00;;;;;;;8.55;1.48;;;;;;;3.12;79.81;99941.63;5025172;28;20055;-87
2022/02/24 01:42:29;;;;;;;6.57;1.40;;;;;;;3.08;79.60;99933.25;5026040;28;20521;-87
2022/02/24 01:44:56;;;;;;;4.53;1.52;;;;;;;3.05;79.95;99931.94;5025406;28;20049;-87
2022/02/24 01:47:25;;;;;;;8.13;2.08;;;;;;;3.06;80.02;99933.56;5026228;28;20049;-87
2022/02/24 01:49:52;;;;;;;14.40;2.58;;;;;;;3.07;79.91;99924.22;5025267;28;20222;-87
2022/02/24 01:52:20;;;;;;;10.60;1.90;;;;;;;3.10;80.31;99914.56;5025923;28;20045;-86
2022/02/24 01:54:48;;;;;;;7.53;2.08;;;;;;;3.11;80.50;99920.84;5024573;28;20042;-87
2022/02/24 01:57:16;;;;;;;10.35;2.38;;;;;;;3.13;80.52;99910.41;5040684;28;20049;-87
2022/02/24 01:59:45;;;;;;;9.15;2.13;;;;;;;3.15;80.35;99924.59;5024213;28;20119;-86
2022/02/24 02:02:14;;;;;;;10.45;1.95;;;;;;;3.17;80.65;99908.66;5024375;28;20747;-86
2022/02/24 02:04:42;;;;;;;5.60;1.83;;;;;;;3.19;80.65;99900.94;5024243;28;20122;-86
2022/02/24 02:07:10;;;;;;;9.32;3.28;;;;;;;3.18;80.42;99893.88;5025425;28;20317;-87
2022/02/24 02:09:38;;;;;;;5.93;1.58;;;;;;;3.19;80.66;99898.22;5024461;28;20057;-87
2022/02/24 02:12:06;;;;;;;12.43;1.83;;;;;;;3.18;81.06;99888.41;5024790;28;20505;-85
2022/02/24 02:14:37;;;;;;;12.75;2.28;;;;;;;3.12;81.15;99878.72;5023658;28;20061;-86
2022/02/24 02:17:05;;;;;;;16.77;2.25;;;;;;;3.19;81.37;99884.53;5025811;28;20052;-86
2022/02/24 02:19:36;;;;;;;10.70;2.17;;;;;;;3.24;80.57;99866.06;5025449;28;20056;-86
2022/02/24 02:22:04;;;;;;;8.15;3.47;;;;;;;3.25;80.67;99861.38;4992559;28;20045;-86
2022/02/24 02:24:36;;;;;;;12.65;1.98;;;;;;;3.25;80.95;99866.88;5040080;28;20467;-86
2022/02/24 02:27:03;;;;;;;8.63;2.90;;;;;;;3.25;80.86;99854.00;5041342;28;20059;-86
2022/02/24 02:29:30;;;;;;;3.85;1.67;;;;;;;3.27;80.93;99851.75;5024834;28;20485;-87
2022/02/24 02:31:58;;;;;;;6.32;1.73;;;;;;;3.26;80.91;99855.59;5024601;28;20045;-86
2022/02/24 02:34:25;;;;;;;15.40;3.20;;;;;;;3.27;81.59;99865.41;5024519;28;20049;-85
2022/02/24 02:36:52;;;;;;;11.23;2.67;;;;;;;3.32;81.30;99858.97;5008496;28;20568;-87
2022/02/24 02:39:19;;;;;;;8.90;2.97;;;;;;;3.34;81.48;99846.59;5024513;28;20045;-86
2022/02/24 02:41:47;;;;;;;10.50;2.30;;;;;;;3.38;81.23;99849.50;5040195;28;20049;-86
2022/02/24 02:44:15;;;;;;;12.85;2.08;;;;;;;3.41;80.95;99854.34;5020125;28;20034;-86
2022/02/24 02:46:44;;;;;;;10.55;1.52;;;;;;;3.40;81.10;99847.25;5024635;28;20037;-86
2022/02/24 02:49:11;;;;;;;11.90;2.00;;;;;;;3.44;80.76;99848.25;5024679;28;20040;-86
2022/02/24 02:51:38;;;;;;;18.63;4.50;;;;;;;3.43;81.01;99839.22;5008317;28;20111;-86
2022/02/24 02:54:06;;;;;;;5.57;1.55;;;;;;;3.43;80.63;99827.47;4990584;28;20053;-86
2022/02/24 02:56:33;;;;;;;9.45;1.92;;;;;;;3.41;80.71;99838.75;5008386;28;20053;-86
2022/02/24 02:59:00;;;;;;;8.00;2.30;;;;;;;3.42;80.47;99836.78;5022389;28;20041;-87
2022/02/24 03:01:27;;;;;;;7.63;1.40;;;;;;;3.40;80.55;99837.13;5038749;28;20129;-86
2022/02/24 03:03:55;;;;;;;5.35;1.50;;;;;;;3.39;80.74;99837.44;5023109;28;20417;-86
2022/02/24 03:06:22;;;;;;;11.93;2.00;;;;;;;3.35;80.86;99833.72;5023213;28;20071;-86
2022/02/24 03:08:49;;;;;;;11.43;2.30;;;;;;;3.33;80.58;99830.50;5006885;28;20053;-87
2022/02/24 03:11:16;;;;;;;13.45;2.70;;;;;;;3.30;80.96;99821.03;5040507;28;20060;-87
2022/02/24 03:13:43;;;;;;;10.65;2.10;;;;;;;3.23;81.04;99819.88;5023129;28;20138;-86
2022/02/24 03:16:10;;;;;;;4.90;1.50;;;;;;;3.22;81.17;99818.25;5020305;28;20049;-86
2022/02/24 03:18:38;;;;;;;9.18;2.47;;;;;;;3.19;81.10;99818.91;5006344;28;20064;-86
2022/02/24 03:21:05;;;;;;;11.85;2.10;;;;;;;3.18;80.85;99814.56;5038511;28;20117;-86
2022/02/24 03:23:33;;;;;;;7.72;1.60;;;;;;;3.12;81.22;99804.91;5024856;28;20041;-86
2022/02/24 03:26:00;;;;;;;3.42;1.35;;;;;;;3.12;81.39;99819.38;5022010;28;20050;-86
2022/02/24 03:28:29;;;;;;;14.75;2.10;;;;;;;3.14;81.45;99811.66;5004944;28;20417;-86
2022/02/24 03:30:56;;;;;;;9.23;1.88;;;;;;;3.11;81.32;99800.53;5005749;28;20167;-87
2022/02/24 03:33:23;;;;;;;13.57;2.15;;;;;;;3.11;81.13;99806.81;5038543;28;20076;-86
2022/02/24 03:35:51;;;;;;;23.08;2.67;;;;;;;3.10;81.22;99799.72;5022306;28;20049;-86
2022/02/24 03:38:18;;;;;;;7.70;1.90;;;;;;;3.12;81.24;99796.69;5020304;28;20049;-86
2022/02/24 03:40:45;;;;;;;6.70;1.35;;;;;;;3.16;81.28;99786.72;5005851;28;20072;-85
2022/02/24 03:43:12;;;;;;;5.18;1.50;;;;;;;3.18;81.20;99784.47;5023178;28;20049;-86
2022/02/24 03:45:40;;;;;;;6.70;1.50;;;;;;;3.15;81.27;99787.84;5018317;28;20140;-86
2022/02/24 03:48:07;;;;;;;6.30;2.08;;;;;;;3.16;81.21;99786.72;5020545;28;20091;-86
2022/02/24 03:50:34;;;;;;;7.78;1.48;;;;;;;3.17;80.88;99793.81;5006319;28;20049;-86
2022/02/24 03:53:01;;;;;;;13.77;2.08;;;;;;;3.17;81.06;99777.41;5006410;28;20073;-87
2022/02/24 03:55:28;;;;;;;6.70;1.23;;;;;;;3.13;80.73;99776.41;5021549;28;20057;-86
2022/02/24 03:57:55;;;;;;;6.18;1.02;;;;;;;3.10;80.71;99777.06;5021951;28;20049;-85
2022/02/24 04:00:23;;;;;;;7.10;1.13;;;;;;;3.06;80.45;99761.31;5021652;28;20879;-86
2022/02/24 04:02:50;;;;;;;6.93;1.05;;;;;;;3.03;80.29;99761.94;5039277;28;20121;-86
2022/02/24 04:05:17;;;;;;;6.22;1.08;;;;;;;3.04;80.19;99768.22;5022744;28;20046;-86
2022/02/24 04:07:44;;;;;;;7.18;1.10;;;;;;;3.02;79.92;99748.56;5004777;28;20053;-86
2022/02/24 04:10:11;;;;;;;15.52;1.55;;;;;;;3.02;79.87;99743.09;5006205;28;21917;-86
2022/02/24 04:12:40;;;;;;;4.03;0.95;;;;;;;3.03;80.02;99761.94;5038573;28;20257;-86
2022/02/24 04:15:07;;;;;;;10.98;3.13;;;;;;;3.03;80.17;99761.94;5019925;28;20513;-87
2022/02/24 04:17:34;;;;;;;8.30;1.17;;;;;;;3.03;80.10;99750.19;5021462;28;20053;-85
2022/02/24 04:20:02;;;;;;;11.00;1.42;;;;;;;3.02;79.69;99771.25;5038312;28;20124;-86
2022/02/24 04:22:29;;;;;;;3.67;1.27;;;;;;;3.01;79.74;99764.19;5038227;28;20076;-86
2022/02/24 04:24:58;;;;;;;7.20;0.98;;;;;;;2.99;79.42;99766.41;5006406;28;20072;-87
2022/02/24 04:27:25;;;;;;;7.00;1.98;;;;;;;2.97;79.83;99779.59;5025491;28;20049;-86
2022/02/24 04:29:52;;;;;;;8.07;1.00;;;;;;;2.89;79.30;99761.25;5026325;28;20042;-86
2022/02/24 04:32:19;;;;;;;5.57;1.10;;;;;;;2.82;79.45;99766.38;5021881;28;20547;-86
2022/02/24 04:34:47;;;;;;;4.70;1.88;;;;;;;2.76;79.81;99762.19;5025299;28;20076;-86
2022/02/24 04:37:14;;;;;;;3.20;1.55;;;;;;;2.72;79.60;99761.22;5041869;28;20555;-86
2022/02/24 04:39:42;;;;;;;5.07;1.08;;;;;;;2.67;79.80;99769.56;5024996;28;20147;-86
2022/02/24 04:42:09;;;;;;;1.52;1.00;;;;;;;2.60;79.79;99757.47;5042422;28;20393;-86
2022/02/24 04:44:36;;;;;;;6.40;0.63;;;;;;;2.57;79.68;99763.59;5026709;28;20120;-86
2022/02/24 04:47:04;;;;;;;6.22;1.00;;;;;;;2.52;79.64;99756.31;5024785;28;20053;-85
2022/02/24 04:49:31;;;;;;;11.50;1.23;;;;;;;2.49;79.79;99754.22;5025590;28;20536;-86
2022/02/24 04:51:59;;;;;;;5.15;0.65;;;;;;;2.43;79.72;99766.41;5009847;28;21046;-86
2022/02/24 04:54:26;;;;;;;4.47;1.23;;;;;;;2.38;79.62;99767.34;4994429;28;20408;-85
2022/02/24 04:56:53;;;;;;;4.13;0.88;;;;;;;2.35;79.26;99775.38;5026872;28;20107;-85
2022/02/24 04:59:21;;;;;;;3.63;0.60;;;;;;;2.35;79.38;99761.72;5024205;28;20042;-86
2022/02/24 05:01:48;;;;;;;3.70;0.70;;;;;;;2.31;79.29;99777.94;5025069;28;20049;-86
2022/02/24 05:04:18;;;;;;;2.20;0.70;;;;;;;2.26;79.29;99777.25;4992016;28;20107;-86
2022/02/24 05:06:45;;;;;;;3.33;0.80;;;;;;;2.23;79.36;99781.41;5024892;28;20087;-86
2022/02/24 05:09:12;;;;;;;7.35;0.70;;;;;;;2.19;79.64;99787.81;5024789;28;20071;-85
2022/02/24 05:11:39;;;;;;;3.28;0.32;;;;;;;2.15;79.82;99784.09;5025659;28;20050;-85
2022/02/24 05:14:07;;;;;;;2.40;0.52;;;;;;;2.14;79.53;99788.78;5026426;28;20045;-86
2022/02/24 05:16:34;;;;;;;2.78;0.50;;;;;;;2.12;79.59;99787.47;5041434;28;21739;-86
2022/02/24 05:19:01;;;;;;;1.60;0.45;;;;;;;2.09;79.83;99788.09;5024986;28;20041;-86
2022/02/24 05:21:29;;;;;;;4.13;0.60;;;;;;;2.11;79.81;99780.38;4992273;28;20521;-86
2022/02/24 05:23:56;;;;;;;2.35;0.50;;;;;;;2.08;79.53;99787.28;5041820;28;20045;-86
2022/02/24 05:26:30;;;;;;;6.22;0.50;;;;;;;2.09;79.76;99779.91;5025052;28;20042;-85
2022/02/24 05:28:57;;;;;;;1.67;0.30;;;;;;;2.08;79.66;99789.19;5025015;28;20054;-86
2022/02/24 05:31:25;;;;;;;4.18;0.52;;;;;;;2.07;79.86;99790.31;5021519;28;20564;-86
2022/02/24 05:33:52;;;;;;;1.17;0.50;;;;;;;2.06;79.98;99791.44;5025373;28;20046;-85
2022/02/24 05:36:19;;;;;;;1.27;0.30;;;;;;;2.08;80.16;99794.66;5024626;28;20049;-86
2022/02/24 05:38:47;;;;;;;3.85;0.55;;;;;;;2.09;80.17;99796.28;5039285;28;20080;-86
2022/02/24 05:41:14;;;;;;;4.18;0.35;;;;;;;2.08;80.26;99800.13;5023582;28;20493;-86
2022/02/24 05:43:43;;;;;;;2.25;0.55;;;;;;;2.07;80.87;99804.78;5008942;28;20112;-85
2022/02/24 05:46:10;;;;;;;1.90;0.47;;;;;;;2.08;80.50;99805.59;5041834;28;20038;-86
2022/02/24 05:48:37;;;;;;;3.05;0.80;;;;;;;2.09;80.74;99804.47;5040969;28;20099;-86
2022/02/24 05:51:04;;;;;;;3.08;0.80;;;;;;;2.09;80.94;99812.66;5023119;28;20142;-86
2022/02/24 05:53:31;;;;;;;0.95;0.30;;;;;;;2.09;81.17;99808.00;5024520;28;20053;-85
2022/02/24 05:55:59;;;;;;;3.88;0.63;;;;;;;2.06;81.26;99807.81;5009133;28;20924;-86
2022/02/24 05:58:26;;;;;;;2.20;0.47;;;;;;;2.02;81.45;99812.28;5023808;28;20123;-85
2022/02/24 06:00:53;;;;;;;1.45;0.40;;;;;;;1.99;81.29;99812.91;5024835;28;20098;-85
2022/02/24 06:03:21;;;;;;;1.15;0.40;;;;;;;1.98;81.67;99814.03;5023263;28;20041;-85
2022/02/24 06:05:51;;;;;;;4.07;0.30;;;;;;;1.94;81.90;99816.56;5025356;28;20556;-85
2022/02/24 06:08:18;;;;;;;1.52;0.17;;;;;;;1.93;81.97;99816.88;5025011;28;22878;-85
2022/02/24 06:10:45;;;;;;;1.33;0.50;;;;;;;1.90;82.13;99809.31;5024410;28;20045;-86
2022/02/24 06:13:12;;;;;;;4.50;0.30;;;;;;;1.89;82.46;99802.25;5007054;28;20068;-86
2022/02/24 06:15:40;;;;;;;0.70;0.55;;;;;;;1.87;82.54;99805.28;5023275;28;20053;-87
2022/02/24 06:18:08;;;;;;;0.93;0.43;;;;;;;1.89;82.38;99802.25;4992343;28;20137;-86
2022/02/24 06:20:35;;;;;;;1.33;0.30;;;;;;;1.87;82.96;99805.28;5041316;28;20044;-86
2022/02/24 06:23:03;;;;;;;0.80;0.43;;;;;;;1.85;82.64;99797.41;5041119;28;20041;-87
2022/02/24 06:25:30;;;;;;;0.55;0.20;;;;;;;1.84;82.59;99817.63;5024240;28;20065;-87
2022/02/24 06:27:58;;;;;;;1.52;0.40;;;;;;;1.83;83.11;99820.66;5023536;28;20057;-87
2022/02/24 06:30:26;;;;;;;1.23;0.40;;;;;;;1.82;82.88;99808.97;5024519;28;20045;-87
2022/02/24 06:32:55;;;;;;;4.93;0.50;;;;;;;1.80;83.06;99811.16;5006520;28;20045;-87
2022/02/24 06:35:22;;;;;;;3.42;0.50;;;;;;;1.77;83.14;99811.78;5006836;28;20075;-85
2022/02/24 06:37:49;;;;;;;2.47;0.40;;;;;;;1.72;83.05;99817.38;5024195;28;20045;-87
2022/02/24 06:40:16;;;;;;;0.60;0.25;;;;;;;1.71;83.12;99804.84;5022993;28;20600;-85
2022/02/24 06:42:44;;;;;;;1.33;0.25;;;;;;;1.71;83.33;99809.50;5039822;28;20095;-84
2022/02/24 06:45:11;;;;;;;1.40;0.40;;;;;;;1.67;83.11;99813.94;5023264;28;20045;-85
2022/02/24 06:47:38;;;;;;;2.45;0.50;;;;;;;1.69;83.17;99820.75;5025337;28;20396;-85
2022/02/24 06:50:06;;;;;;;1.67;0.22;;;;;;;1.67;83.22;99827.59;5006047;28;20045;-84
2022/02/24 06:52:36;;;;;;;0.50;0.28;;;;;;;1.61;83.48;99835.13;5006358;28;20048;-84
2022/02/24 06:55:05;;;;;;;3.22;0.47;;;;;;;1.58;83.79;99848.56;5006002;28;20497;-83
2022/02/24 06:57:43;;;;;;;4.25;0.43;;;;;;;1.57;83.77;99842.28;5024332;28;20037;-83
2022/02/24 07:00:10;;;;;;;2.30;0.47;;;;;;;1.60;83.61;99866.22;5040074;28;20046;-83
2022/02/24 07:02:38;;;;;;;2.97;0.60;;;;;;;1.61;83.59;99859.66;5022640;28;20091;-84
2022/02/24 07:05:08;;;;;;;1.23;0.50;;;;;;;1.61;84.02;99870.56;5022815;28;20056;-84
2022/02/24 07:07:35;;;;;;;2.15;0.60;;;;;;;1.54;84.14;99888.44;5023218;28;20064;-84
2022/02/24 07:10:05;;;;;;;2.85;0.52;;;;;;;1.52;84.19;99886.03;5023263;28;20039;-84
2022/02/24 07:12:32;;;;;;;1.55;0.45;;;;;;;1.55;83.82;99893.63;5020806;28;20045;-83
2022/02/24 07:14:59;;;;;;;4.25;0.75;;;;;;;1.57;83.66;99896.84;5022517;28;20136;-84
2022/02/24 07:17:26;;;;;;;0.60;0.30;;;;;;;1.54;83.96;99870.16;5006030;28;20092;-84
2022/02/24 07:19:53;;;;;;;5.30;0.40;;;;;;;1.51;83.83;99861.81;5023394;28;20535;-83
2022/02/24 07:22:20;;;;;;;0.85;0.40;;;;;;;1.51;83.55;99867.28;5022245;28;20394;-83
2022/02/24 07:24:47;;;;;;;1.20;0.85;;;;;;;1.47;83.73;99877.97;5008068;28;20057;-83
2022/02/24 07:27:15;;;;;;;0.73;0.40;;;;;;;1.43;83.49;99879.69;5006526;28;20524;-83
2022/02/24 07:29:43;;;;;;;1.80;0.65;;;;;;;1.44;83.71;99861.41;5006710;28;20050;-84
2022/02/24 07:32:10;;;;;;;6.43;0.88;;;;;;;1.42;83.84;99853.53;5021636;28;20052;-82
2022/02/24 07:34:37;;;;;;;1.13;0.55;;;;;;;1.43;83.78;99871.50;5000806;28;20107;-83
2022/02/24 07:37:04;;;;;;;1.00;0.57;;;;;;;1.48;83.66;99840.59;5020015;28;20037;-83
2022/02/24 07:39:32;;;;;;;4.60;1.65;;;;;;;1.54;83.95;99872.91;4989729;28;20045;-85
2022/02/24 07:41:59;;;;;;;2.67;0.50;;;;;;;1.56;83.71;99892.47;5021208;28;20512;-84
2022/02/24 07:44:27;;;;;;;1.95;0.50;;;;;;;1.59;84.06;99913.69;5006168;28;20050;-84
2022/02/24 07:46:54;;;;;;;1.67;0.40;;;;;;;1.52;84.07;99891.50;5022977;28;20405;-85
2022/02/24 07:49:25;;;;;;;0.80;0.50;;;;;;;1.51;84.16;99900.00;5024489;28;20556;-85
2022/02/24 07:51:55;;;;;;;2.67;2.15;;;;;;;1.53;84.16;99914.13;5022402;28;20409;-86
2022/02/24 07:54:23;;;;;;;1.85;0.35;;;;;;;1.49;84.47;99913.13;5022028;28;20051;-83
2022/02/24 07:56:50;;;;;;;1.45;0.32;;;;;;;1.48;84.40;99919.69;5039751;28;20053;-84
2022/02/24 07:59:18;;;;;;;3.53;0.57;;;;;;;1.43;84.48;99915.13;5022621;28;20049;-85
2022/02/24 08:01:45;;;;;;;2.83;0.50;;;;;;;1.46;84.60;99913.72;5021661;28;21308;-84
2022/02/24 08:04:13;;;;;;;2.85;0.40;;;;;;;1.47;84.35;99921.63;5022651;28;20077;-84
2022/02/24 08:06:40;;;;;;;1.10;0.63;;;;;;;1.48;84.77;99930.59;5005911;28;20487;-83
2022/02/24 08:09:08;;;;;;;0.40;0.38;;;;;;;1.47;84.84;99918.88;5024041;28;20033;-85
2022/02/24 08:11:35;;;;;;;1.05;0.68;;;;;;;1.46;84.79;99925.44;5005893;28;20065;-84
2022/02/24 08:14:04;;;;;;;0.52;0.40;;;;;;;1.50;84.58;99931.91;5023522;28;20065;-87
2022/02/24 08:16:31;;;;;;;0.85;0.50;;;;;;;1.54;84.60;99938.34;5021003;28;20048;-84
2022/02/24 08:19:01;;;;;;;1.65;0.60;;;;;;;1.58;84.51;99968.56;5004810;28;20100;-84
2022/02/24 08:21:28;;;;;;;5.35;0.85;;;;;;;1.54;84.67;99976.56;5032251;28;20065;-84
2022/02/24 08:23:55;;;;;;;1.58;0.60;;;;;;;1.58;85.13;99979.50;5021901;28;20048;-84
2022/02/24 08:26:24;;;;;;;0.95;0.57;;;;;;;1.61;84.95;99982.44;5022549;28;20060;-84
2022/02/24 08:28:54;;;;;;;2.47;0.65;;;;;;;1.67;84.96;99986.66;5022315;28;20064;-84
2022/02/24 08:31:26;;;;;;;1.67;0.45;;;;;;;1.75;84.88;99996.84;5006864;28;20049;-85
2022/02/24 08:33:55;;;;;;;1.20;0.55;;;;;;;1.83;85.06;99996.13;5038378;28;20049;-84
2022/02/24 08:36:25;;;;;;;2.92;0.55;;;;;;;1.97;85.21;99995.28;5022939;28;20050;-84
2022/02/24 08:38:52;;;;;;;0.95;0.40;;;;;;;2.08;84.76;99992.03;5022035;28;20065;-84
2022/02/24 08:41:39;;;;;;;1.05;0.25;;;;;;;2.08;84.57;100000.22;5022370;28;20044;-84
2022/02/24 08:44:06;;;;;;;5.07;0.63;;;;;;;2.04;84.45;100014.81;5023196;28;20042;-85
2022/02/24 08:46:40;;;;;;;2.30;0.65;;;;;;;1.94;84.62;100013.09;5022156;28;20049;-86
2022/02/24 08:49:07;;;;;;;1.58;0.52;;;;;;;1.96;84.51;100021.00;5022311;28;20123;-86
2022/02/24 08:51:35;;;;;;;0.38;0.30;;;;;;;1.94;84.77;100017.72;5039269;28;20405;-85
2022/02/24 08:54:02;;;;;;;1.08;0.50;;;;;;;1.94;84.58;100018.53;5021915;28;20129;-86
2022/02/24 08:56:30;;;;;;;3.55;1.08;;;;;;;1.93;84.93;100018.88;5021546;28;20589;-84
2022/02/24 08:58:58;;;;;;;0.98;0.85;;;;;;;1.87;85.06;100006.44;5039647;28;20029;-86
2022/02/24 09:01:25;;;;;;;1.60;0.70;;;;;;;1.93;85.12;100005.22;5023155;28;20069;-84
2022/02/24 09:03:52;;;;;;;1.10;1.00;;;;;;;1.97;84.93;100007.03;5022212;28;20516;-86
2022/02/24 09:06:21;;;;;;;1.92;0.70;;;;;;;2.03;85.47;100005.81;5007133;28;20044;-88
2022/02/24 09:08:48;;;;;;;0.68;0.55;;;;;;;2.03;84.98;100007.72;5020517;28;20125;-87
2022/02/24 09:11:17;;;;;;;1.40;0.52;;;;;;;2.05;84.95;100005.50;5020584;28;20064;-81
2022/02/24 09:13:45;;;;;;;3.38;1.77;;;;;;;2.10;84.85;100008.09;5040210;28;20053;-82
2022/02/24 09:16:12;;;;;;;2.22;1.05;;;;;;;2.11;85.08;100010.53;5027145;28;20505;-83
2022/02/24 09:18:39;;;;;;;2.20;0.88;;;;;;;2.15;84.57;100018.91;4992797;28;20402;-83
2022/02/24 09:21:06;;;;;;;1.92;1.08;;;;;;;2.15;84.97;100024.38;5025356;28;20175;-83
2022/02/24 09:23:36;;;;;;;2.30;0.90;;;;;;;2.17;84.89;100038.53;5025691;28;20061;-83
2022/02/24 09:26:03;;;;;;;0.85;0.65;;;;;;;2.20;84.84;100046.09;5024474;28;20065;-83
2022/02/24 09:28:30;;;;;;;3.47;0.45;;;;;;;2.20;84.54;100055.09;5041484;28;20053;-83
2022/02/24 09:30:57;;;;;;;0.57;0.47;;;;;;;2.14;84.25;100067.28;5024847;28;20136;-83
2022/02/24 09:33:26;;;;;;;0.55;0.32;;;;;;;2.09;84.54;100064.63;5008186;28;20124;-82
2022/02/24 09:35:54;;;;;;;1.02;0.28;;;;;;;1.98;83.90;100067.88;5024587;28;20045;-83
2022/02/24 09:38:21;;;;;;;0.77;0.57;;;;;;;1.89;84.09;100070.50;5025750;28;20045;-83
2022/02/24 09:40:56;;;;;;;2.30;1.20;;;;;;;1.88;83.89;100068.09;5041529;28;20060;-83
2022/02/24 09:43:34;;;;;;;1.07;0.53;;;;;;;1.88;83.78;100073.56;5041690;28;20045;-83
2022/02/24 09:46:04;;;;;;;1.40;0.77;;;;;;;1.92;83.82;100080.03;5038621;28;20037;-82
2022/02/24 09:48:33;;;;;;;4.03;0.43;;;;;;;2.00;84.15;100076.56;5024266;28;20095;-84
2022/02/24 09:51:02;;;;;;;2.75;0.47;;;;;;;1.99;83.42;100072.22;5039647;28;20045;-83
2022/02/24 09:53:32;;;;;;;1.33;1.13;;;;;;;2.02;83.83;100069.69;5023412;28;20073;-82
2022/02/24 09:56:00;;;;;;;3.90;0.52;;;;;;;2.04;83.41;100066.69;5007187;28;20050;-83
2022/02/24 09:58:28;;;;;;;1.33;0.35;;;;;;;2.03;83.20;100060.41;5018169;28;20056;-82
2022/02/24 10:01:02;;;;;;;0.28;0.20;;;;;;;2.03;83.29;100054.13;5022893;28;20056;-82
2022/02/24 10:03:42;;;;;;;2.22;0.40;;;;;;;2.02;83.00;100063.41;5007604;28;20124;-83
2022/02/24 10:06:10;;;;;;;;;;;;;;;2.04;83.29;100067.47;5041618;28;20041;-83
2022/02/24 10:08:42;;;;;;;1.67;0.50;;;;;;;2.11;83.26;100062.41;5003298;28;19939;-82
2022/02/24 10:11:22;;;;;;;3.20;0.70;;;;;;;2.22;83.25;100077.47;5024369;28;20041;-82
2022/02/24 10:14:09;;;;;;;1.83;0.80;;;;;;;2.29;82.77;100074.31;5040955;28;20124;-82
2022/02/24 10:16:59;;;;;;;1.42;0.85;;;;;;;2.31;81.76;100086.53;5007761;28;20045;-83
2022/02/24 10:19:34;;;;;;;4.60;1.27;;;;;;;2.36;82.28;100096.53;5007172;28;20060;-83
2022/02/24 10:22:28;;;;;;;2.15;0.85;;;;;;;2.45;82.10;100083.78;5023868;28;20045;-82
2022/02/24 10:24:58;;;;;;;2.88;0.80;;;;;;;2.61;81.88;100098.72;5034352;28;20049;-82
2022/02/24 10:27:31;;;;;;;3.38;1.38;;;;;;;2.64;80.87;100102.75;5023647;28;20441;-82
2022/02/24 10:30:02;;;;;;;1.60;0.95;;;;;;;2.61;80.39;100104.19;5002787;28;20076;-82
2022/02/24 10:32:34;;;;;;;3.78;0.85;;;;;;;2.60;80.81;100118.94;5022863;28;20059;-83
2022/02/24 10:35:20;;;;;;;1.98;0.57;;;;;;;2.59;80.10;100122.81;5039396;28;20049;-82
2022/02/24 10:38:08;;;;;;;2.17;0.75;;;;;;;2.61;80.04;100120.56;5022890;28;20045;-82
2022/02/24 10:40:42;;;;;;;2.70;0.70;;;;;;;2.57;79.96;100119.56;5006460;28;20085;-83
2022/02/24 10:43:17;;;;;;;3.03;0.68;;;;;;;2.62;80.70;100105.78;5038225;28;20493;-87
2022/02/24 10:45:47;;;;;;;3.05;0.70;;;;;;;2.68;80.57;100104.56;5003009;28;20099;-91
2022/02/24 10:48:15;;;;;;;2.53;1.08;;;;;;;2.75;80.70;100126.81;5024721;28;20077;-81
2022/02/24 10:50:57;;;;;;;2.85;0.63;;;;;;;2.80;79.97;100125.88;5023970;28;20042;-83
2022/02/24 10:53:26;;;;;;;7.10;0.98;;;;;;;2.88;80.41;100119.69;5023503;28;20041;-83
2022/02/24 10:55:56;;;;;;;4.32;0.77;;;;;;;2.93;79.85;100147.72;5008999;28;20045;-83
2022/02/24 10:58:27;;;;;;;2.80;0.80;;;;;;;3.03;79.72;100144.75;5024204;28;20128;-82
2022/02/24 11:01:19;;;;;;;5.30;0.80;;;;;;;3.11;78.62;100156.84;5040002;28;20060;-84
2022/02/24 11:03:51;;;;;;;;;;;;;;;3.20;77.41;100165.94;5023481;28;20076;-83
2022/02/24 11:06:20;;;;;;;4.95;0.70;;;;;;;3.34;78.40;100165.88;5022739;28;19925;-85
2022/02/24 11:08:51;;;;;;;3.42;0.85;;;;;;;3.39;78.14;100174.75;5040436;28;20077;-84
2022/02/24 11:11:22;;;;;;;3.58;0.80;;;;;;;3.44;77.62;100176.59;5007718;28;20492;-84
2022/02/24 11:13:50;;;;;;;3.00;0.57;;;;;;;3.43;77.02;100191.38;5024937;28;20468;-84
2022/02/24 11:16:19;;;;;;;1.80;0.85;;;;;;;3.41;76.66;100188.16;5021693;28;20509;-84
2022/02/24 11:18:48;;;;;;;1.08;0.30;;;;;;;3.39;76.46;100198.59;5023623;28;20049;-85
2022/02/24 11:21:17;;;;;;;1.58;0.50;;;;;;;3.38;75.94;100199.72;5024089;28;20045;-86
2022/02/24 11:23:49;;;;;;;1.67;0.60;;;;;;;3.42;76.52;100195.22;5044350;28;20049;-86
2022/02/24 11:26:23;;;;;;;3.10;0.80;;;;;;;3.44;75.62;100202.00;5036720;28;20137;-88
2022/02/24 11:28:59;;;;;;;8.50;2.00;;;;;;;3.51;75.54;100207.03;5006701;28;20057;-83
2022/02/24 11:31:52;;;;;;;1.95;0.88;;;;;;;3.63;75.77;100207.28;4999791;28;20069;-83
2022/02/24 11:34:58;;;;;;;3.07;0.80;;;;;;;3.78;74.88;100209.66;5018705;28;20068;-86
2022/02/24 11:37:41;;;;;;;15.80;1.42;;;;;;;3.89;74.96;100219.19;5019166;28;20402;-88
2022/02/24 11:40:09;;;;;;;5.88;0.93;;;;;;;3.95;74.84;100193.28;5016989;28;20053;-84
2022/02/24 11:42:41;;;;;;;4.75;2.17;;;;;;;4.09;75.03;100194.00;4999409;28;20057;-83
2022/02/24 11:45:24;;;;;;;2.67;1.20;;;;;;;4.24;74.36;100215.50;5001905;28;20059;-82
2022/02/24 11:47:55;;;;;;;1.55;0.73;;;;;;;4.26;74.37;100220.69;5035483;28;20041;-83